sensor_id;sensor_type;location;lat;lon;timestamp;P1;durP1;ratioP1;P2;durP2;ratioP2
27145;SDS011;17980;51.744;7.190;2023-02-07T00:00:16;25.93;;;16.50;;
27145;SDS011;17980;51.744;7.190;2023-02-07T00:02:45;25.77;;;14.20;;
27145;SDS011;17980;51.744;7.190;2023-02-07T00:05:13;24.83;;;13.43;;
27145;SDS011;17980;51.744;7.190;2023-02-07T00:07:41;25.10;;;13.60;;
27145;SDS011;17980;51.744;7.190;2023-02-07T00:10:09;28.27;;;12.93;;
27145;SDS011;17980;51.744;7.190;2023-02-07T00:12:36;27.07;;;14.33;;
27145;SDS011;17980;51.744;7.190;2023-02-07T00:15:04;23.27;;;13.00;;
27145;SDS011;17980;51.744;7.190;2023-02-07T00:17:32;26.10;;;13.87;;
27145;SDS011;17980;51.744;7.190;2023-02-07T00:20:10;21.73;;;13.43;;
27145;SDS011;17980;51.744;7.190;2023-02-07T00:22:38;21.10;;;12.63;;
27145;SDS011;17980;51.744;7.190;2023-02-07T00:25:05;23.03;;;12.63;;
27145;SDS011;17980;51.744;7.190;2023-02-07T00:27:32;22.77;;;13.00;;
27145;SDS011;17980;51.744;7.190;2023-02-07T00:30:10;22.30;;;11.70;;
27145;SDS011;17980;51.744;7.190;2023-02-07T00:32:38;20.67;;;12.23;;
27145;SDS011;17980;51.744;7.190;2023-02-07T00:35:06;25.10;;;11.40;;
27145;SDS011;17980;51.744;7.190;2023-02-07T00:37:34;18.63;;;10.70;;
27145;SDS011;17980;51.744;7.190;2023-02-07T00:40:11;17.97;;;9.87;;
27145;SDS011;17980;51.744;7.190;2023-02-07T00:42:38;18.97;;;11.23;;
27145;SDS011;17980;51.744;7.190;2023-02-07T00:45:06;15.77;;;9.60;;
27145;SDS011;17980;51.744;7.190;2023-02-07T00:47:34;19.73;;;11.90;;
27145;SDS011;17980;51.744;7.190;2023-02-07T00:50:01;16.93;;;10.43;;
27145;SDS011;17980;51.744;7.190;2023-02-07T00:52:29;21.43;;;10.83;;
27145;SDS011;17980;51.744;7.190;2023-02-07T00:55:06;17.87;;;10.77;;
27145;SDS011;17980;51.744;7.190;2023-02-07T00:57:34;19.43;;;11.43;;
27145;SDS011;17980;51.744;7.190;2023-02-07T01:00:17;15.53;;;11.07;;
27145;SDS011;17980;51.744;7.190;2023-02-07T01:02:44;20.93;;;10.40;;
27145;SDS011;17980;51.744;7.190;2023-02-07T01:05:11;15.67;;;9.70;;
27145;SDS011;17980;51.744;7.190;2023-02-07T01:07:39;16.23;;;10.40;;
27145;SDS011;17980;51.744;7.190;2023-02-07T01:10:06;19.80;;;10.47;;
27145;SDS011;17980;51.744;7.190;2023-02-07T01:12:34;18.13;;;10.63;;
27145;SDS011;17980;51.744;7.190;2023-02-07T01:15:11;13.40;;;9.37;;
27145;SDS011;17980;51.744;7.190;2023-02-07T01:17:38;17.53;;;10.07;;
27145;SDS011;17980;51.744;7.190;2023-02-07T01:20:07;15.60;;;10.40;;
27145;SDS011;17980;51.744;7.190;2023-02-07T01:25:12;17.07;;;10.23;;
27145;SDS011;17980;51.744;7.190;2023-02-07T01:27:39;18.40;;;10.83;;
27145;SDS011;17980;51.744;7.190;2023-02-07T01:30:16;14.50;;;9.97;;
27145;SDS011;17980;51.744;7.190;2023-02-07T01:32:43;23.13;;;10.03;;
27145;SDS011;17980;51.744;7.190;2023-02-07T01:35:11;16.60;;;10.43;;
27145;SDS011;17980;51.744;7.190;2023-02-07T01:37:38;19.40;;;10.53;;
27145;SDS011;17980;51.744;7.190;2023-02-07T01:42:42;22.53;;;11.53;;
27145;SDS011;17980;51.744;7.190;2023-02-07T01:45:15;20.97;;;10.93;;
27145;SDS011;17980;51.744;7.190;2023-02-07T01:47:52;16.23;;;10.73;;
27145;SDS011;17980;51.744;7.190;2023-02-07T01:50:29;18.77;;;10.70;;
27145;SDS011;17980;51.744;7.190;2023-02-07T01:52:58;18.30;;;10.80;;
27145;SDS011;17980;51.744;7.190;2023-02-07T01:55:28;14.37;;;10.47;;
27145;SDS011;17980;51.744;7.190;2023-02-07T01:57:58;19.27;;;11.70;;
27145;SDS011;17980;51.744;7.190;2023-02-07T02:00:35;18.13;;;11.20;;
27145;SDS011;17980;51.744;7.190;2023-02-07T02:03:03;16.17;;;11.53;;
27145;SDS011;17980;51.744;7.190;2023-02-07T02:05:31;18.57;;;11.73;;
27145;SDS011;17980;51.744;7.190;2023-02-07T02:08:00;16.00;;;11.80;;
27145;SDS011;17980;51.744;7.190;2023-02-07T02:10:46;16.43;;;10.90;;
27145;SDS011;17980;51.744;7.190;2023-02-07T02:13:21;19.10;;;11.00;;
27145;SDS011;17980;51.744;7.190;2023-02-07T02:15:53;15.57;;;10.53;;
27145;SDS011;17980;51.744;7.190;2023-02-07T02:18:42;17.87;;;10.77;;
27145;SDS011;17980;51.744;7.190;2023-02-07T02:24:56;17.47;;;10.27;;
27145;SDS011;17980;51.744;7.190;2023-02-07T02:27:39;17.73;;;12.13;;
27145;SDS011;17980;51.744;7.190;2023-02-07T02:30:40;13.93;;;9.40;;
27145;SDS011;17980;51.744;7.190;2023-02-07T02:33:28;15.07;;;10.23;;
27145;SDS011;17980;51.744;7.190;2023-02-07T02:36:03;19.57;;;11.40;;
27145;SDS011;17980;51.744;7.190;2023-02-07T02:38:43;16.70;;;10.63;;
27145;SDS011;17980;51.744;7.190;2023-02-07T02:41:14;18.37;;;10.80;;
27145;SDS011;17980;51.744;7.190;2023-02-07T02:43:45;17.67;;;11.80;;
27145;SDS011;17980;51.744;7.190;2023-02-07T02:46:19;18.73;;;10.63;;
27145;SDS011;17980;51.744;7.190;2023-02-07T02:51:24;19.23;;;10.67;;
27145;SDS011;17980;51.744;7.190;2023-02-07T02:53:55;16.97;;;11.17;;
27145;SDS011;17980;51.744;7.190;2023-02-07T02:59:42;17.43;;;11.10;;
27145;SDS011;17980;51.744;7.190;2023-02-07T03:02:20;23.00;;;11.73;;
27145;SDS011;17980;51.744;7.190;2023-02-07T03:05:07;20.20;;;11.33;;
27145;SDS011;17980;51.744;7.190;2023-02-07T03:07:44;22.67;;;11.63;;
27145;SDS011;17980;51.744;7.190;2023-02-07T03:10:18;19.90;;;11.53;;
27145;SDS011;17980;51.744;7.190;2023-02-07T03:13:00;18.30;;;10.97;;
27145;SDS011;17980;51.744;7.190;2023-02-07T03:15:34;16.83;;;10.17;;
27145;SDS011;17980;51.744;7.190;2023-02-07T03:18:04;18.47;;;11.83;;
27145;SDS011;17980;51.744;7.190;2023-02-07T03:20:35;18.60;;;11.17;;
27145;SDS011;17980;51.744;7.190;2023-02-07T03:23:05;20.93;;;11.57;;
27145;SDS011;17980;51.744;7.190;2023-02-07T03:25:34;18.67;;;11.57;;
27145;SDS011;17980;51.744;7.190;2023-02-07T03:28:03;19.53;;;11.80;;
27145;SDS011;17980;51.744;7.190;2023-02-07T03:30:40;17.80;;;11.40;;
27145;SDS011;17980;51.744;7.190;2023-02-07T03:33:10;18.93;;;10.90;;
27145;SDS011;17980;51.744;7.190;2023-02-07T03:35:40;17.23;;;10.70;;
27145;SDS011;17980;51.744;7.190;2023-02-07T03:38:19;18.77;;;11.10;;
27145;SDS011;17980;51.744;7.190;2023-02-07T03:40:51;17.63;;;12.03;;
27145;SDS011;17980;51.744;7.190;2023-02-07T03:43:26;20.77;;;12.03;;
27145;SDS011;17980;51.744;7.190;2023-02-07T03:45:56;19.77;;;11.80;;
27145;SDS011;17980;51.744;7.190;2023-02-07T03:51:00;20.23;;;11.83;;
27145;SDS011;17980;51.744;7.190;2023-02-07T03:53:28;16.27;;;10.77;;
27145;SDS011;17980;51.744;7.190;2023-02-07T03:55:55;20.97;;;12.47;;
27145;SDS011;17980;51.744;7.190;2023-02-07T03:58:32;18.63;;;12.23;;
27145;SDS011;17980;51.744;7.190;2023-02-07T04:01:00;18.17;;;12.03;;
27145;SDS011;17980;51.744;7.190;2023-02-07T04:03:36;19.93;;;11.40;;
27145;SDS011;17980;51.744;7.190;2023-02-07T04:06:04;17.27;;;11.83;;
27145;SDS011;17980;51.744;7.190;2023-02-07T04:11:17;21.30;;;12.80;;
27145;SDS011;17980;51.744;7.190;2023-02-07T04:13:44;18.20;;;11.77;;
27145;SDS011;17980;51.744;7.190;2023-02-07T04:16:11;19.73;;;11.93;;
27145;SDS011;17980;51.744;7.190;2023-02-07T04:18:39;20.43;;;11.53;;
27145;SDS011;17980;51.744;7.190;2023-02-07T04:21:15;18.90;;;11.90;;
27145;SDS011;17980;51.744;7.190;2023-02-07T04:23:43;18.37;;;11.93;;
27145;SDS011;17980;51.744;7.190;2023-02-07T04:26:10;14.67;;;11.10;;
27145;SDS011;17980;51.744;7.190;2023-02-07T04:28:37;17.63;;;11.10;;
27145;SDS011;17980;51.744;7.190;2023-02-07T04:31:14;16.93;;;11.77;;
27145;SDS011;17980;51.744;7.190;2023-02-07T04:33:41;20.93;;;12.57;;
27145;SDS011;17980;51.744;7.190;2023-02-07T04:36:09;19.27;;;11.93;;
27145;SDS011;17980;51.744;7.190;2023-02-07T04:38:36;19.57;;;12.00;;
27145;SDS011;17980;51.744;7.190;2023-02-07T04:41:13;20.30;;;12.17;;
27145;SDS011;17980;51.744;7.190;2023-02-07T04:43:40;20.00;;;12.63;;
27145;SDS011;17980;51.744;7.190;2023-02-07T04:46:07;17.63;;;11.87;;
27145;SDS011;17980;51.744;7.190;2023-02-07T04:48:35;21.87;;;12.80;;
27145;SDS011;17980;51.744;7.190;2023-02-07T04:51:12;18.73;;;12.07;;
27145;SDS011;17980;51.744;7.190;2023-02-07T04:53:40;18.83;;;11.77;;
27145;SDS011;17980;51.744;7.190;2023-02-07T04:56:07;19.90;;;12.87;;
27145;SDS011;17980;51.744;7.190;2023-02-07T04:58:45;19.83;;;13.57;;
27145;SDS011;17980;51.744;7.190;2023-02-07T05:01:12;21.07;;;12.70;;
27145;SDS011;17980;51.744;7.190;2023-02-07T05:03:49;23.93;;;12.20;;
27145;SDS011;17980;51.744;7.190;2023-02-07T05:06:16;16.80;;;11.77;;
27145;SDS011;17980;51.744;7.190;2023-02-07T05:08:43;17.33;;;12.00;;
27145;SDS011;17980;51.744;7.190;2023-02-07T05:11:11;20.90;;;12.73;;
27145;SDS011;17980;51.744;7.190;2023-02-07T05:13:38;18.03;;;12.70;;
27145;SDS011;17980;51.744;7.190;2023-02-07T05:16:06;19.80;;;12.57;;
27145;SDS011;17980;51.744;7.190;2023-02-07T05:18:43;21.77;;;12.13;;
27145;SDS011;17980;51.744;7.190;2023-02-07T05:21:10;19.30;;;11.90;;
27145;SDS011;17980;51.744;7.190;2023-02-07T05:23:47;21.60;;;12.30;;
27145;SDS011;17980;51.744;7.190;2023-02-07T05:26:14;18.30;;;12.73;;
27145;SDS011;17980;51.744;7.190;2023-02-07T05:28:42;22.07;;;13.73;;
27145;SDS011;17980;51.744;7.190;2023-02-07T05:31:19;21.00;;;12.03;;
27145;SDS011;17980;51.744;7.190;2023-02-07T05:33:48;20.07;;;12.77;;
27145;SDS011;17980;51.744;7.190;2023-02-07T05:36:25;23.27;;;12.47;;
27145;SDS011;17980;51.744;7.190;2023-02-07T05:38:52;18.17;;;12.40;;
27145;SDS011;17980;51.744;7.190;2023-02-07T05:41:29;20.50;;;13.47;;
27145;SDS011;17980;51.744;7.190;2023-02-07T05:43:56;20.50;;;13.73;;
27145;SDS011;17980;51.744;7.190;2023-02-07T05:46:23;24.17;;;13.00;;
27145;SDS011;17980;51.744;7.190;2023-02-07T05:48:51;26.07;;;15.60;;
27145;SDS011;17980;51.744;7.190;2023-02-07T05:51:27;29.83;;;16.60;;
27145;SDS011;17980;51.744;7.190;2023-02-07T05:53:55;27.07;;;15.10;;
27145;SDS011;17980;51.744;7.190;2023-02-07T05:56:22;24.43;;;14.00;;
27145;SDS011;17980;51.744;7.190;2023-02-07T05:58:49;18.27;;;12.83;;
27145;SDS011;17980;51.744;7.190;2023-02-07T06:01:26;25.67;;;13.87;;
27145;SDS011;17980;51.744;7.190;2023-02-07T06:03:53;33.70;;;17.47;;
27145;SDS011;17980;51.744;7.190;2023-02-07T06:06:20;30.87;;;16.77;;
27145;SDS011;17980;51.744;7.190;2023-02-07T06:08:48;28.27;;;14.77;;
27145;SDS011;17980;51.744;7.190;2023-02-07T06:11:24;21.03;;;13.23;;
27145;SDS011;17980;51.744;7.190;2023-02-07T06:13:52;21.40;;;12.90;;
27145;SDS011;17980;51.744;7.190;2023-02-07T06:16:19;23.50;;;14.33;;
27145;SDS011;17980;51.744;7.190;2023-02-07T06:18:46;21.37;;;13.33;;
27145;SDS011;17980;51.744;7.190;2023-02-07T06:21:23;23.10;;;13.93;;
27145;SDS011;17980;51.744;7.190;2023-02-07T06:23:50;18.90;;;13.00;;
27145;SDS011;17980;51.744;7.190;2023-02-07T06:26:18;23.20;;;13.33;;
27145;SDS011;17980;51.744;7.190;2023-02-07T06:28:45;22.60;;;14.10;;
27145;SDS011;17980;51.744;7.190;2023-02-07T06:31:25;21.63;;;13.17;;
27145;SDS011;17980;51.744;7.190;2023-02-07T06:33:53;20.03;;;13.97;;
27145;SDS011;17980;51.744;7.190;2023-02-07T06:36:30;19.20;;;13.73;;
27145;SDS011;17980;51.744;7.190;2023-02-07T06:38:59;23.03;;;15.60;;
27145;SDS011;17980;51.744;7.190;2023-02-07T06:41:40;23.37;;;16.10;;
27145;SDS011;17980;51.744;7.190;2023-02-07T06:44:17;24.73;;;16.17;;
27145;SDS011;17980;51.744;7.190;2023-02-07T06:46:45;23.53;;;15.27;;
27145;SDS011;17980;51.744;7.190;2023-02-07T06:49:13;24.67;;;13.97;;
27145;SDS011;17980;51.744;7.190;2023-02-07T06:51:51;23.80;;;15.47;;
27145;SDS011;17980;51.744;7.190;2023-02-07T06:54:21;22.03;;;15.23;;
27145;SDS011;17980;51.744;7.190;2023-02-07T06:56:52;24.97;;;15.03;;
27145;SDS011;17980;51.744;7.190;2023-02-07T06:59:33;23.27;;;14.70;;
27145;SDS011;17980;51.744;7.190;2023-02-07T07:02:10;19.93;;;13.87;;
27145;SDS011;17980;51.744;7.190;2023-02-07T07:04:54;20.03;;;13.93;;
27145;SDS011;17980;51.744;7.190;2023-02-07T07:07:36;23.00;;;14.23;;
27145;SDS011;17980;51.744;7.190;2023-02-07T07:10:14;23.40;;;15.90;;
27145;SDS011;17980;51.744;7.190;2023-02-07T07:12:41;26.00;;;15.37;;
27145;SDS011;17980;51.744;7.190;2023-02-07T07:15:09;20.63;;;14.40;;
27145;SDS011;17980;51.744;7.190;2023-02-07T07:17:46;23.20;;;14.30;;
27145;SDS011;17980;51.744;7.190;2023-02-07T07:20:16;24.43;;;16.83;;
27145;SDS011;17980;51.744;7.190;2023-02-07T07:22:44;25.87;;;15.83;;
27145;SDS011;17980;51.744;7.190;2023-02-07T07:25:31;24.87;;;15.33;;
27145;SDS011;17980;51.744;7.190;2023-02-07T07:28:00;24.93;;;16.63;;
27145;SDS011;17980;51.744;7.190;2023-02-07T07:30:38;37.77;;;24.53;;
27145;SDS011;17980;51.744;7.190;2023-02-07T07:33:09;34.37;;;22.10;;
27145;SDS011;17980;51.744;7.190;2023-02-07T07:35:37;27.97;;;19.73;;
27145;SDS011;17980;51.744;7.190;2023-02-07T07:40:54;28.97;;;18.67;;
27145;SDS011;17980;51.744;7.190;2023-02-07T07:43:24;27.50;;;18.63;;
27145;SDS011;17980;51.744;7.190;2023-02-07T07:46:05;24.60;;;17.83;;
27145;SDS011;17980;51.744;7.190;2023-02-07T07:48:33;23.60;;;15.57;;
27145;SDS011;17980;51.744;7.190;2023-02-07T07:51:20;21.97;;;14.83;;
27145;SDS011;17980;51.744;7.190;2023-02-07T07:53:50;21.53;;;14.37;;
27145;SDS011;17980;51.744;7.190;2023-02-07T07:59:06;23.27;;;15.63;;
27145;SDS011;17980;51.744;7.190;2023-02-07T08:01:44;20.70;;;14.93;;
27145;SDS011;17980;51.744;7.190;2023-02-07T08:04:25;21.13;;;15.30;;
27145;SDS011;17980;51.744;7.190;2023-02-07T08:06:53;22.53;;;15.27;;
27145;SDS011;17980;51.744;7.190;2023-02-07T08:09:31;23.03;;;15.80;;
27145;SDS011;17980;51.744;7.190;2023-02-07T08:12:00;20.27;;;14.57;;
27145;SDS011;17980;51.744;7.190;2023-02-07T08:14:45;21.20;;;14.77;;
27145;SDS011;17980;51.744;7.190;2023-02-07T08:17:16;21.00;;;13.53;;
27145;SDS011;17980;51.744;7.190;2023-02-07T08:19:56;21.43;;;13.87;;
27145;SDS011;17980;51.744;7.190;2023-02-07T08:22:25;22.23;;;13.67;;
27145;SDS011;17980;51.744;7.190;2023-02-07T08:25:02;22.30;;;14.73;;
27145;SDS011;17980;51.744;7.190;2023-02-07T08:27:31;20.43;;;13.73;;
27145;SDS011;17980;51.744;7.190;2023-02-07T08:30:10;17.07;;;13.13;;
27145;SDS011;17980;51.744;7.190;2023-02-07T08:32:40;18.43;;;13.73;;
27145;SDS011;17980;51.744;7.190;2023-02-07T08:35:13;18.87;;;12.90;;
27145;SDS011;17980;51.744;7.190;2023-02-07T08:37:53;16.67;;;12.60;;
27145;SDS011;17980;51.744;7.190;2023-02-07T08:40:24;21.10;;;13.03;;
27145;SDS011;17980;51.744;7.190;2023-02-07T08:43:01;13.47;;;9.70;;
27145;SDS011;17980;51.744;7.190;2023-02-07T08:45:31;13.10;;;9.13;;
27145;SDS011;17980;51.744;7.190;2023-02-07T08:48:04;9.77;;;8.10;;
27145;SDS011;17980;51.744;7.190;2023-02-07T08:50:43;10.30;;;8.20;;
27145;SDS011;17980;51.744;7.190;2023-02-07T08:53:12;9.20;;;8.30;;
27145;SDS011;17980;51.744;7.190;2023-02-07T08:55:40;8.57;;;7.27;;
27145;SDS011;17980;51.744;7.190;2023-02-07T08:58:09;11.17;;;7.50;;
27145;SDS011;17980;51.744;7.190;2023-02-07T09:00:51;10.80;;;7.50;;
27145;SDS011;17980;51.744;7.190;2023-02-07T09:03:24;8.60;;;7.20;;
27145;SDS011;17980;51.744;7.190;2023-02-07T09:06:00;8.47;;;6.37;;
27145;SDS011;17980;51.744;7.190;2023-02-07T09:11:09;6.93;;;6.23;;
27145;SDS011;17980;51.744;7.190;2023-02-07T09:13:37;6.60;;;5.77;;
27145;SDS011;17980;51.744;7.190;2023-02-07T09:16:11;8.77;;;6.77;;
27145;SDS011;17980;51.744;7.190;2023-02-07T09:18:42;6.83;;;6.13;;
27145;SDS011;17980;51.744;7.190;2023-02-07T09:21:12;8.50;;;7.07;;
27145;SDS011;17980;51.744;7.190;2023-02-07T09:23:53;6.67;;;6.03;;
27145;SDS011;17980;51.744;7.190;2023-02-07T09:26:21;6.67;;;6.07;;
27145;SDS011;17980;51.744;7.190;2023-02-07T09:28:50;7.37;;;5.83;;
27145;SDS011;17980;51.744;7.190;2023-02-07T09:31:30;7.73;;;6.00;;
27145;SDS011;17980;51.744;7.190;2023-02-07T09:34:01;6.37;;;5.73;;
27145;SDS011;17980;51.744;7.190;2023-02-07T09:36:30;7.70;;;6.33;;
27145;SDS011;17980;51.744;7.190;2023-02-07T09:39:01;8.07;;;6.77;;
27145;SDS011;17980;51.744;7.190;2023-02-07T09:41:41;8.87;;;6.33;;
27145;SDS011;17980;51.744;7.190;2023-02-07T09:44:15;7.10;;;5.63;;
27145;SDS011;17980;51.744;7.190;2023-02-07T09:49:30;7.23;;;5.50;;
27145;SDS011;17980;51.744;7.190;2023-02-07T09:52:03;6.83;;;5.90;;
27145;SDS011;17980;51.744;7.190;2023-02-07T09:54:42;8.97;;;6.67;;
27145;SDS011;17980;51.744;7.190;2023-02-07T09:57:14;8.30;;;7.27;;
27145;SDS011;17980;51.744;7.190;2023-02-07T09:59:48;7.97;;;6.50;;
27145;SDS011;17980;51.744;7.190;2023-02-07T10:02:26;10.50;;;6.73;;
27145;SDS011;17980;51.744;7.190;2023-02-07T10:04:59;10.43;;;8.67;;
27145;SDS011;17980;51.744;7.190;2023-02-07T10:07:40;10.33;;;7.97;;
27145;SDS011;17980;51.744;7.190;2023-02-07T10:13:09;12.37;;;7.83;;
27145;SDS011;17980;51.744;7.190;2023-02-07T10:15:51;9.77;;;8.40;;
27145;SDS011;17980;51.744;7.190;2023-02-07T10:18:36;9.10;;;6.93;;
27145;SDS011;17980;51.744;7.190;2023-02-07T10:21:08;9.13;;;7.80;;
27145;SDS011;17980;51.744;7.190;2023-02-07T10:23:45;9.47;;;8.47;;
27145;SDS011;17980;51.744;7.190;2023-02-07T10:26:53;7.57;;;6.70;;
27145;SDS011;17980;51.744;7.190;2023-02-07T10:29:45;10.17;;;7.80;;
27145;SDS011;17980;51.744;7.190;2023-02-07T10:32:19;7.87;;;6.80;;
27145;SDS011;17980;51.744;7.190;2023-02-07T10:35:13;8.60;;;6.40;;
27145;SDS011;17980;51.744;7.190;2023-02-07T10:37:45;6.97;;;5.83;;
27145;SDS011;17980;51.744;7.190;2023-02-07T10:40:20;6.53;;;5.63;;
27145;SDS011;17980;51.744;7.190;2023-02-07T10:42:59;9.10;;;6.07;;
27145;SDS011;17980;51.744;7.190;2023-02-07T10:45:29;7.07;;;6.07;;
27145;SDS011;17980;51.744;7.190;2023-02-07T10:47:58;9.03;;;6.93;;
27145;SDS011;17980;51.744;7.190;2023-02-07T10:50:35;7.57;;;6.23;;
27145;SDS011;17980;51.744;7.190;2023-02-07T10:53:06;6.93;;;6.07;;
27145;SDS011;17980;51.744;7.190;2023-02-07T10:58:15;7.90;;;5.83;;
27145;SDS011;17980;51.744;7.190;2023-02-07T11:03:23;7.60;;;6.20;;
27145;SDS011;17980;51.744;7.190;2023-02-07T11:05:56;8.40;;;5.33;;
27145;SDS011;17980;51.744;7.190;2023-02-07T11:08:27;4.50;;;3.77;;
27145;SDS011;17980;51.744;7.190;2023-02-07T11:11:21;5.23;;;3.83;;
27145;SDS011;17980;51.744;7.190;2023-02-07T11:13:57;4.70;;;4.03;;
27145;SDS011;17980;51.744;7.190;2023-02-07T11:16:46;4.20;;;3.60;;
27145;SDS011;17980;51.744;7.190;2023-02-07T11:19:32;6.27;;;4.47;;
27145;SDS011;17980;51.744;7.190;2023-02-07T11:22:08;5.57;;;4.30;;
27145;SDS011;17980;51.744;7.190;2023-02-07T11:24:50;4.80;;;4.07;;
27145;SDS011;17980;51.744;7.190;2023-02-07T11:27:25;6.97;;;4.77;;
27145;SDS011;17980;51.744;7.190;2023-02-07T11:29:54;3.87;;;3.53;;
27145;SDS011;17980;51.744;7.190;2023-02-07T11:32:23;4.27;;;3.90;;
27145;SDS011;17980;51.744;7.190;2023-02-07T11:35:03;4.93;;;4.33;;
27145;SDS011;17980;51.744;7.190;2023-02-07T11:37:37;5.00;;;4.50;;
27145;SDS011;17980;51.744;7.190;2023-02-07T11:40:25;6.10;;;4.37;;
27145;SDS011;17980;51.744;7.190;2023-02-07T11:43:05;6.07;;;3.97;;
27145;SDS011;17980;51.744;7.190;2023-02-07T11:45:38;8.77;;;5.33;;
27145;SDS011;17980;51.744;7.190;2023-02-07T11:48:15;6.03;;;4.83;;
27145;SDS011;17980;51.744;7.190;2023-02-07T11:51:54;5.87;;;4.60;;
27145;SDS011;17980;51.744;7.190;2023-02-07T11:54:36;5.70;;;3.83;;
27145;SDS011;17980;51.744;7.190;2023-02-07T11:57:16;4.83;;;3.97;;
27145;SDS011;17980;51.744;7.190;2023-02-07T11:59:58;4.20;;;3.80;;
27145;SDS011;17980;51.744;7.190;2023-02-07T12:02:37;4.40;;;3.10;;
27145;SDS011;17980;51.744;7.190;2023-02-07T12:05:13;4.67;;;3.53;;
27145;SDS011;17980;51.744;7.190;2023-02-07T12:07:57;6.33;;;4.23;;
27145;SDS011;17980;51.744;7.190;2023-02-07T12:10:28;4.13;;;3.37;;
27145;SDS011;17980;51.744;7.190;2023-02-07T12:13:06;3.73;;;3.43;;
27145;SDS011;17980;51.744;7.190;2023-02-07T12:15:38;4.13;;;3.40;;
27145;SDS011;17980;51.744;7.190;2023-02-07T12:18:18;4.93;;;4.53;;
27145;SDS011;17980;51.744;7.190;2023-02-07T12:23:25;4.67;;;3.50;;
27145;SDS011;17980;51.744;7.190;2023-02-07T12:25:57;5.30;;;3.77;;
27145;SDS011;17980;51.744;7.190;2023-02-07T12:28:29;5.43;;;4.33;;
27145;SDS011;17980;51.744;7.190;2023-02-07T12:31:00;10.63;;;4.77;;
27145;SDS011;17980;51.744;7.190;2023-02-07T12:36:07;4.90;;;4.47;;
27145;SDS011;17980;51.744;7.190;2023-02-07T12:38:41;7.33;;;4.47;;
27145;SDS011;17980;51.744;7.190;2023-02-07T12:41:20;4.97;;;4.47;;
27145;SDS011;17980;51.744;7.190;2023-02-07T12:43:52;4.83;;;4.10;;
27145;SDS011;17980;51.744;7.190;2023-02-07T12:46:37;5.00;;;4.47;;
27145;SDS011;17980;51.744;7.190;2023-02-07T12:49:14;5.53;;;4.00;;
27145;SDS011;17980;51.744;7.190;2023-02-07T12:52:10;8.13;;;6.60;;
27145;SDS011;17980;51.744;7.190;2023-02-07T12:54:35;4.90;;;4.37;;
27145;SDS011;17980;51.744;7.190;2023-02-07T12:57:06;5.80;;;4.70;;
27145;SDS011;17980;51.744;7.190;2023-02-07T12:59:48;6.23;;;4.77;;
27145;SDS011;17980;51.744;7.190;2023-02-07T13:02:23;7.40;;;4.63;;
27145;SDS011;17980;51.744;7.190;2023-02-07T13:05:09;4.53;;;4.13;;
27145;SDS011;17980;51.744;7.190;2023-02-07T13:07:55;3.70;;;3.37;;
27145;SDS011;17980;51.744;7.190;2023-02-07T13:10:28;4.37;;;3.97;;
27145;SDS011;17980;51.744;7.190;2023-02-07T13:13:02;7.27;;;4.07;;
27145;SDS011;17980;51.744;7.190;2023-02-07T13:15:35;3.80;;;3.00;;
27145;SDS011;17980;51.744;7.190;2023-02-07T13:18:05;5.10;;;4.23;;
27145;SDS011;17980;51.744;7.190;2023-02-07T13:20:55;6.57;;;4.33;;
27145;SDS011;17980;51.744;7.190;2023-02-07T13:23:27;4.43;;;4.03;;
27145;SDS011;17980;51.744;7.190;2023-02-07T13:28:37;3.00;;;2.60;;
27145;SDS011;17980;51.744;7.190;2023-02-07T13:31:16;4.43;;;3.80;;
27145;SDS011;17980;51.744;7.190;2023-02-07T13:33:45;3.67;;;3.30;;
27145;SDS011;17980;51.744;7.190;2023-02-07T13:36:16;3.30;;;2.97;;
27145;SDS011;17980;51.744;7.190;2023-02-07T13:39:07;3.63;;;3.33;;
27145;SDS011;17980;51.744;7.190;2023-02-07T13:41:55;2.90;;;2.43;;
27145;SDS011;17980;51.744;7.190;2023-02-07T13:44:29;7.00;;;6.30;;
27145;SDS011;17980;51.744;7.190;2023-02-07T13:47:11;3.73;;;3.43;;
27145;SDS011;17980;51.744;7.190;2023-02-07T13:49:46;3.50;;;3.20;;
27145;SDS011;17980;51.744;7.190;2023-02-07T13:52:26;4.30;;;3.40;;
27145;SDS011;17980;51.744;7.190;2023-02-07T13:54:56;4.67;;;3.80;;
27145;SDS011;17980;51.744;7.190;2023-02-07T13:57:38;3.27;;;2.97;;
27145;SDS011;17980;51.744;7.190;2023-02-07T14:00:26;4.03;;;3.33;;
27145;SDS011;17980;51.744;7.190;2023-02-07T14:03:04;3.37;;;3.07;;
27145;SDS011;17980;51.744;7.190;2023-02-07T14:05:34;5.90;;;3.77;;
27145;SDS011;17980;51.744;7.190;2023-02-07T14:08:18;3.30;;;2.80;;
27145;SDS011;17980;51.744;7.190;2023-02-07T14:10:55;6.17;;;2.90;;
27145;SDS011;17980;51.744;7.190;2023-02-07T14:13:29;2.70;;;2.50;;
27145;SDS011;17980;51.744;7.190;2023-02-07T14:16:06;4.23;;;3.17;;
27145;SDS011;17980;51.744;7.190;2023-02-07T14:18:42;4.27;;;3.40;;
27145;SDS011;17980;51.744;7.190;2023-02-07T14:21:26;3.50;;;2.30;;
27145;SDS011;17980;51.744;7.190;2023-02-07T14:24:08;3.23;;;2.40;;
27145;SDS011;17980;51.744;7.190;2023-02-07T14:26:55;3.20;;;2.60;;
27145;SDS011;17980;51.744;7.190;2023-02-07T14:33:08;7.47;;;2.40;;
27145;SDS011;17980;51.744;7.190;2023-02-07T14:35:44;3.13;;;2.53;;
27145;SDS011;17980;51.744;7.190;2023-02-07T14:38:41;3.37;;;2.70;;
27145;SDS011;17980;51.744;7.190;2023-02-07T14:43:48;4.33;;;3.30;;
27145;SDS011;17980;51.744;7.190;2023-02-07T14:46:24;3.73;;;2.23;;
27145;SDS011;17980;51.744;7.190;2023-02-07T14:51:31;3.23;;;2.50;;
27145;SDS011;17980;51.744;7.190;2023-02-07T14:54:06;3.17;;;2.87;;
27145;SDS011;17980;51.744;7.190;2023-02-07T14:56:45;3.07;;;2.53;;
27145;SDS011;17980;51.744;7.190;2023-02-07T14:59:17;3.37;;;3.00;;
27145;SDS011;17980;51.744;7.190;2023-02-07T15:04:25;7.07;;;3.53;;
27145;SDS011;17980;51.744;7.190;2023-02-07T15:06:54;3.43;;;3.10;;
27145;SDS011;17980;51.744;7.190;2023-02-07T15:09:31;5.47;;;2.50;;
27145;SDS011;17980;51.744;7.190;2023-02-07T15:12:02;3.87;;;2.77;;
27145;SDS011;17980;51.744;7.190;2023-02-07T15:14:39;3.40;;;2.70;;
27145;SDS011;17980;51.744;7.190;2023-02-07T15:17:06;5.27;;;2.83;;
27145;SDS011;17980;51.744;7.190;2023-02-07T15:19:36;2.97;;;2.67;;
27145;SDS011;17980;51.744;7.190;2023-02-07T15:22:05;3.30;;;2.37;;
27145;SDS011;17980;51.744;7.190;2023-02-07T15:24:34;5.63;;;2.47;;
27145;SDS011;17980;51.744;7.190;2023-02-07T15:27:04;2.80;;;2.50;;
27145;SDS011;17980;51.744;7.190;2023-02-07T15:29:41;3.53;;;2.10;;
27145;SDS011;17980;51.744;7.190;2023-02-07T15:32:15;2.90;;;2.40;;
27145;SDS011;17980;51.744;7.190;2023-02-07T15:34:55;3.63;;;2.00;;
27145;SDS011;17980;51.744;7.190;2023-02-07T15:37:23;3.07;;;2.10;;
27145;SDS011;17980;51.744;7.190;2023-02-07T15:39:52;3.10;;;2.80;;
27145;SDS011;17980;51.744;7.190;2023-02-07T15:42:30;4.60;;;2.73;;
27145;SDS011;17980;51.744;7.190;2023-02-07T15:44:57;2.57;;;1.83;;
27145;SDS011;17980;51.744;7.190;2023-02-07T15:47:32;6.67;;;2.27;;
27145;SDS011;17980;51.744;7.190;2023-02-07T15:50:02;3.37;;;2.80;;
27145;SDS011;17980;51.744;7.190;2023-02-07T15:52:41;2.87;;;2.50;;
27145;SDS011;17980;51.744;7.190;2023-02-07T15:55:14;3.17;;;2.60;;
27145;SDS011;17980;51.744;7.190;2023-02-07T15:57:52;3.07;;;2.30;;
27145;SDS011;17980;51.744;7.190;2023-02-07T16:00:21;2.60;;;2.40;;
27145;SDS011;17980;51.744;7.190;2023-02-07T16:02:59;2.77;;;2.57;;
27145;SDS011;17980;51.744;7.190;2023-02-07T16:05:29;2.97;;;2.67;;
27145;SDS011;17980;51.744;7.190;2023-02-07T16:08:01;2.53;;;1.97;;
27145;SDS011;17980;51.744;7.190;2023-02-07T16:10:34;4.60;;;4.13;;